createdAt,value
2022-09-13T00:01:13.411Z,17.60
2022-09-13T00:03:42.787Z,17.60
2022-09-13T00:06:15.029Z,17.50
2022-09-13T00:08:45.919Z,17.50
2022-09-13T00:11:18.818Z,17.50
2022-09-13T00:13:48.174Z,17.50
2022-09-13T00:16:19.575Z,17.50
2022-09-13T00:18:49.457Z,17.50
2022-09-13T00:21:21.566Z,17.50
2022-09-13T00:23:54.956Z,17.50
2022-09-13T00:26:28.424Z,17.40
2022-09-13T00:29:07.977Z,17.40
2022-09-13T00:31:42.602Z,17.30
2022-09-13T00:34:13.735Z,17.30
2022-09-13T00:36:44.251Z,17.30
2022-09-13T00:39:15.014Z,17.30
2022-09-13T00:41:48.246Z,17.30
2022-09-13T00:44:55.245Z,17.20
2022-09-13T00:47:43.775Z,17.20
2022-09-13T00:50:29.788Z,17.20
2022-09-13T00:53:06.522Z,17.10
2022-09-13T00:55:44.179Z,17.10
2022-09-13T00:58:20.597Z,17.10
2022-09-13T01:00:51.528Z,17.10
2022-09-13T01:03:25.506Z,17.10
2022-09-13T01:06:00.697Z,17.10
2022-09-13T01:08:32.235Z,17.10
2022-09-13T01:11:04.504Z,17.10
2022-09-13T01:13:35.491Z,17.00
2022-09-13T01:16:09.192Z,17.00
2022-09-13T01:18:38.607Z,17.00
2022-09-13T01:22:10.690Z,17.00
2022-09-13T01:25:13.383Z,16.90
2022-09-13T01:28:13.670Z,16.90
2022-09-13T01:31:05.744Z,16.90
2022-09-13T01:34:04.747Z,16.80
2022-09-13T01:37:15.748Z,16.80
2022-09-13T01:40:06.270Z,16.80
2022-09-13T01:42:54.939Z,16.80
2022-09-13T01:45:36.874Z,16.80
2022-09-13T01:48:17.451Z,16.80
2022-09-13T01:50:54.058Z,16.80
2022-09-13T01:53:33.392Z,16.80
2022-09-13T01:56:07.336Z,16.80
2022-09-13T01:58:45.183Z,16.80
2022-09-13T02:01:18.919Z,16.80
2022-09-13T02:03:56.756Z,16.70
2022-09-13T02:06:32.147Z,16.70
2022-09-13T02:09:04.992Z,16.60
2022-09-13T02:11:36.791Z,16.60
2022-09-13T02:14:24.642Z,16.60
2022-09-13T02:17:01.251Z,16.60
2022-09-13T02:19:38.752Z,16.50
2022-09-13T02:22:12.926Z,16.60
2022-09-13T02:24:46.312Z,16.50
2022-09-13T02:27:27.140Z,16.50
2022-09-13T02:30:02.776Z,16.50
2022-09-13T02:32:37.470Z,16.50
2022-09-13T02:35:13.385Z,16.50
2022-09-13T02:38:33.272Z,16.50
2022-09-13T02:41:11.823Z,16.00
2022-09-13T02:43:45.349Z,16.50
2022-09-13T02:46:31.458Z,16.50
2022-09-13T02:49:07.096Z,16.50
2022-09-13T02:51:46.314Z,16.60
2022-09-13T02:54:27.086Z,16.50
2022-09-13T02:57:03.938Z,16.50
2022-09-13T02:59:34.343Z,16.50
2022-09-13T03:02:08.965Z,16.50
2022-09-13T03:04:39.762Z,16.40
2022-09-13T03:07:13.846Z,16.40
2022-09-13T03:09:49.992Z,16.40
2022-09-13T03:12:37.369Z,16.40
2022-09-13T03:15:20.586Z,16.40
2022-09-13T03:18:01.907Z,16.30
2022-09-13T03:20:46.546Z,16.30
2022-09-13T03:23:47.028Z,16.20
2022-09-13T03:26:47.806Z,16.20
2022-09-13T03:29:35.882Z,16.20
2022-09-13T03:32:55.866Z,16.20
2022-09-13T03:35:56.102Z,16.20
2022-09-13T03:38:32.978Z,16.20
2022-09-13T03:41:10.682Z,16.20
2022-09-13T03:44:15.011Z,16.10
2022-09-13T03:46:49.163Z,16.20
2022-09-13T03:49:20.446Z,16.20
2022-09-13T03:51:52.498Z,16.20
2022-09-13T03:54:25.546Z,16.10
2022-09-13T03:57:13.768Z,16.20
2022-09-13T03:59:47.244Z,16.10
2022-09-13T04:02:17.538Z,16.10
2022-09-13T04:04:48.451Z,16.10
2022-09-13T04:07:20.411Z,16.20
2022-09-13T04:09:50.139Z,16.10
2022-09-13T04:12:20.808Z,16.10
2022-09-13T04:14:49.859Z,16.10
2022-09-13T04:17:25.875Z,16.10
2022-09-13T04:20:12.005Z,16.10
2022-09-13T04:22:42.266Z,16.10
2022-09-13T04:25:11.221Z,16.10
2022-09-13T04:27:41.677Z,16.10
2022-09-13T04:30:14.668Z,16.10
2022-09-13T04:32:46.774Z,16.10
2022-09-13T04:35:20.860Z,16.00
2022-09-13T04:37:50.709Z,16.00
2022-09-13T04:40:25.313Z,16.00
2022-09-13T04:43:06.493Z,16.00
2022-09-13T04:45:35.500Z,16.00
2022-09-13T04:48:05.086Z,16.10
2022-09-13T04:50:34.128Z,16.10
2022-09-13T04:53:05.903Z,16.10
2022-09-13T04:55:36.878Z,16.10
2022-09-13T04:58:07.445Z,16.10
2022-09-13T05:00:37.424Z,16.10
2022-09-13T05:03:08.858Z,16.10
2022-09-13T05:05:40.856Z,16.20
2022-09-13T05:08:11.791Z,16.10
2022-09-13T05:10:40.822Z,16.30
2022-09-13T05:13:11.142Z,16.30
2022-09-13T05:15:40.121Z,16.40
2022-09-13T05:18:09.127Z,16.30
2022-09-13T05:20:38.259Z,16.40
2022-09-13T05:23:07.650Z,16.40
2022-09-13T05:25:36.635Z,16.40
2022-09-13T05:28:05.709Z,16.40
2022-09-13T05:31:23.005Z,16.50
2022-09-13T05:34:08.235Z,16.50
2022-09-13T05:36:39.254Z,16.50
2022-09-13T05:39:29.730Z,16.50
2022-09-13T05:42:02.249Z,16.50
2022-09-13T05:44:31.224Z,16.60
2022-09-13T05:47:01.899Z,16.60
2022-09-13T05:49:31.023Z,16.70
2022-09-13T05:52:00.233Z,16.70
2022-09-13T05:54:29.440Z,16.70
2022-09-13T05:56:58.603Z,16.70
2022-09-13T05:59:27.652Z,16.80
2022-09-13T06:02:01.003Z,16.80
2022-09-13T06:04:30.266Z,16.80
2022-09-13T06:07:00.536Z,16.90
2022-09-13T06:09:30.459Z,17.00
2022-09-13T06:12:00.100Z,17.00
2022-09-13T06:14:29.137Z,17.10
2022-09-13T06:17:01.062Z,17.20
2022-09-13T06:19:33.792Z,17.30
2022-09-13T06:22:03.296Z,17.30
2022-09-13T06:24:32.533Z,17.40
2022-09-13T06:27:01.527Z,17.40
2022-09-13T06:29:30.507Z,17.50
2022-09-13T06:31:59.428Z,17.50
2022-09-13T06:34:34.600Z,17.60
2022-09-13T06:37:08.187Z,17.60
2022-09-13T06:39:40.166Z,17.70
2022-09-13T06:42:09.179Z,17.70
2022-09-13T06:44:42.582Z,17.70
2022-09-13T06:47:11.683Z,17.80
2022-09-13T06:49:46.764Z,17.90
2022-09-13T06:52:15.932Z,18.00
2022-09-13T06:54:45.197Z,18.10
2022-09-13T06:57:14.557Z,18.20
2022-09-13T06:59:43.701Z,18.30
2022-09-13T07:02:13.603Z,18.40
2022-09-13T07:04:44.027Z,18.50
2022-09-13T07:07:13.105Z,18.50
2022-09-13T07:09:44.808Z,18.60
2022-09-13T07:12:16.629Z,18.60
2022-09-13T07:14:49.115Z,18.70
2022-09-13T07:17:18.134Z,18.80
2022-09-13T07:19:48.477Z,18.80
2022-09-13T07:22:17.531Z,18.90
2022-09-13T07:24:47.462Z,18.90
2022-09-13T07:27:18.847Z,19.00
2022-09-13T07:29:50.931Z,19.10
2022-09-13T07:32:19.900Z,19.10
2022-09-13T07:34:50.462Z,19.20
2022-09-13T07:37:19.528Z,19.20
2022-09-13T07:39:51.597Z,19.30
2022-09-13T07:42:23.417Z,19.40
2022-09-13T07:44:54.753Z,19.40
2022-09-13T07:47:23.784Z,19.50
2022-09-13T07:49:54.416Z,19.60
2022-09-13T07:52:23.447Z,19.60
2022-09-13T07:54:52.731Z,19.60
2022-09-13T07:57:21.821Z,19.70
2022-09-13T07:59:51.451Z,19.70
2022-09-13T08:02:20.693Z,19.80
2022-09-13T08:04:49.714Z,19.90
2022-09-13T08:07:20.171Z,20.00
2022-09-13T08:09:49.366Z,20.10
2022-09-13T08:12:18.639Z,20.20
2022-09-13T08:14:47.579Z,20.20
2022-09-13T08:17:16.599Z,20.30
2022-09-13T08:19:45.594Z,20.40
2022-09-13T08:22:14.666Z,20.50
2022-09-13T08:24:45.147Z,20.60
2022-09-13T08:27:14.467Z,20.60
2022-09-13T08:29:43.501Z,20.80
2022-09-13T08:32:12.460Z,20.80
2022-09-13T08:34:41.574Z,20.70
2022-09-13T08:37:11.901Z,20.80
2022-09-13T08:39:41.065Z,21.00
2022-09-13T08:42:29.209Z,21.00
2022-09-13T08:45:00.998Z,21.10
2022-09-13T08:47:40.440Z,21.30
2022-09-13T08:50:21.044Z,21.30
2022-09-13T08:53:13.140Z,21.40
2022-09-13T08:55:52.706Z,21.50
2022-09-13T08:58:41.491Z,21.60
2022-09-13T09:01:23.051Z,21.70
2022-09-13T09:03:58.658Z,21.70
2022-09-13T09:06:29.253Z,21.80
2022-09-13T09:09:04.858Z,22.10
2022-09-13T09:11:42.769Z,22.20
2022-09-13T09:14:23.384Z,22.30
2022-09-13T09:16:57.065Z,22.50
2022-09-13T09:19:34.326Z,22.50
2022-09-13T09:22:07.274Z,22.60
2022-09-13T09:24:40.079Z,22.70
2022-09-13T09:27:17.326Z,22.60
2022-09-13T09:29:50.668Z,22.70
2022-09-13T09:32:48.257Z,22.70
2022-09-13T09:35:34.366Z,22.70
2022-09-13T09:38:24.557Z,22.70
2022-09-13T09:40:54.305Z,22.80
2022-09-13T09:43:30.050Z,22.90
2022-09-13T09:46:05.221Z,22.90
2022-09-13T09:48:42.358Z,23.00
2022-09-13T09:51:15.060Z,23.10
2022-09-13T09:53:48.727Z,23.10
2022-09-13T09:56:26.970Z,23.10
2022-09-13T09:58:56.294Z,23.20
2022-09-13T10:01:30.282Z,23.30
2022-09-13T10:04:18.177Z,23.40
2022-09-13T10:06:47.769Z,23.40
2022-09-13T10:09:19.667Z,23.50
2022-09-13T10:11:51.725Z,23.60
2022-09-13T10:14:42.590Z,23.50
2022-09-13T10:17:20.268Z,23.60
2022-09-13T10:19:56.440Z,23.70
2022-09-13T10:22:26.252Z,23.80
2022-09-13T10:24:55.961Z,23.90
2022-09-13T10:27:31.199Z,24.10
2022-09-13T10:30:02.176Z,24.10
2022-09-13T10:32:33.082Z,24.20
2022-09-13T10:35:17.912Z,24.30
2022-09-13T10:37:47.218Z,24.40
2022-09-13T10:40:25.787Z,24.40
2022-09-13T10:42:58.294Z,24.60
2022-09-13T10:45:31.791Z,24.60
2022-09-13T10:48:07.051Z,24.80
2022-09-13T10:50:36.302Z,24.90
2022-09-13T10:53:26.143Z,25.00
2022-09-13T10:55:55.940Z,25.10
2022-09-13T10:58:24.881Z,25.20
2022-09-13T11:01:40.930Z,25.30
2022-09-13T11:05:06.320Z,25.40
2022-09-13T11:07:54.727Z,25.60
2022-09-13T11:10:31.088Z,25.70
2022-09-13T11:13:08.947Z,25.90
2022-09-13T11:15:54.704Z,25.90
2022-09-13T11:18:56.217Z,25.90
2022-09-13T11:21:45.004Z,26.00
2022-09-13T11:24:43.594Z,26.20
2022-09-13T11:27:24.891Z,26.20
2022-09-13T11:30:12.511Z,26.30
2022-09-13T11:33:04.713Z,26.50
2022-09-13T11:35:49.635Z,26.70
2022-09-13T11:38:36.859Z,26.80
2022-09-13T11:41:28.246Z,26.90
2022-09-13T11:44:20.425Z,26.90
2022-09-13T11:46:57.676Z,26.90
2022-09-13T11:49:41.994Z,26.90
2022-09-13T11:52:24.277Z,27.00
2022-09-13T11:55:18.890Z,27.20
2022-09-13T11:57:53.583Z,27.30
2022-09-13T12:00:26.237Z,27.30
2022-09-13T12:03:06.909Z,27.40
2022-09-13T12:05:41.932Z,27.40
2022-09-13T12:08:20.327Z,27.30
2022-09-13T12:10:55.350Z,27.40
2022-09-13T12:13:28.824Z,27.50
2022-09-13T12:16:04.229Z,27.60
2022-09-13T12:18:38.957Z,27.70
2022-09-13T12:21:12.614Z,27.70
2022-09-13T12:23:53.506Z,27.80
2022-09-13T12:26:31.582Z,27.70
2022-09-13T12:29:07.501Z,27.80
2022-09-13T12:31:36.564Z,27.80
2022-09-13T12:34:09.368Z,27.80
2022-09-13T12:37:16.636Z,27.90
2022-09-13T12:40:12.257Z,28.00
2022-09-13T12:43:11.486Z,28.00
2022-09-13T12:46:16.441Z,28.00
2022-09-13T12:49:20.437Z,28.00
2022-09-13T12:52:08.278Z,27.90
2022-09-13T12:55:06.206Z,28.00
2022-09-13T12:57:42.496Z,28.00
2022-09-13T13:00:21.969Z,28.10
2022-09-13T13:03:11.695Z,28.10
2022-09-13T13:05:46.232Z,28.10
2022-09-13T13:08:31.080Z,28.20
2022-09-13T13:11:07.978Z,28.00
2022-09-13T13:13:40.116Z,28.10
2022-09-13T13:16:29.621Z,28.10
2022-09-13T13:18:59.842Z,28.00
2022-09-13T13:21:36.466Z,28.10
2022-09-13T13:24:46.261Z,28.20
2022-09-13T13:27:48.086Z,28.10
2022-09-13T13:30:56.398Z,28.20
2022-09-13T13:33:31.982Z,28.10
2022-09-13T13:36:26.466Z,28.10
2022-09-13T13:38:59.831Z,28.10
2022-09-13T13:41:50.112Z,28.10
2022-09-13T13:45:21.623Z,28.10
2022-09-13T13:48:10.875Z,28.20
2022-09-13T13:51:22.901Z,28.20
2022-09-13T13:54:06.655Z,28.30
2022-09-13T13:56:51.412Z,28.20
2022-09-13T13:59:29.021Z,28.30
2022-09-13T14:02:01.659Z,28.30
2022-09-13T14:05:05.076Z,28.40
2022-09-13T14:08:04.400Z,28.40
2022-09-13T14:10:45.568Z,28.50
2022-09-13T14:13:43.228Z,28.40
2022-09-13T14:16:33.143Z,28.40
2022-09-13T14:19:26.854Z,28.40
2022-09-13T14:22:18.001Z,28.30
2022-09-13T14:24:49.772Z,28.20
2022-09-13T14:27:23.881Z,28.20
2022-09-13T14:29:55.676Z,28.20
2022-09-13T14:32:33.900Z,28.20
2022-09-13T14:35:23.759Z,28.20
2022-09-13T14:37:52.854Z,28.20
2022-09-13T14:40:27.557Z,28.20
2022-09-13T14:42:59.520Z,28.10
2022-09-13T14:45:36.475Z,28.10
2022-09-13T14:48:09.461Z,28.10
2022-09-13T14:50:43.626Z,28.10
2022-09-13T14:53:18.297Z,28.10
2022-09-13T14:55:53.041Z,28.10
2022-09-13T14:58:28.019Z,28.20
2022-09-13T15:01:00.863Z,28.10
2022-09-13T15:03:30.690Z,28.10
2022-09-13T15:06:02.803Z,28.10
2022-09-13T15:08:47.766Z,28.10
2022-09-13T15:11:35.123Z,28.20
2022-09-13T15:14:22.119Z,28.00
2022-09-13T15:16:53.856Z,28.10
2022-09-13T15:19:32.874Z,28.00
2022-09-13T15:22:24.749Z,28.00
2022-09-13T15:24:56.442Z,27.90
2022-09-13T15:27:32.576Z,28.00
2022-09-13T15:30:05.936Z,28.00
2022-09-13T15:32:41.710Z,28.00
2022-09-13T15:35:23.515Z,27.90
2022-09-13T15:38:02.021Z,27.90
2022-09-13T15:40:42.687Z,27.80
2022-09-13T15:43:13.756Z,27.80
2022-09-13T15:45:42.763Z,27.80
2022-09-13T15:48:24.860Z,27.70
2022-09-13T15:51:10.149Z,27.70
2022-09-13T15:53:41.781Z,27.70
2022-09-13T15:56:16.143Z,27.60
2022-09-13T15:58:47.327Z,27.60
2022-09-13T16:01:18.353Z,27.60
2022-09-13T16:03:47.480Z,27.60
2022-09-13T16:06:16.608Z,27.70
2022-09-13T16:08:45.834Z,27.70
2022-09-13T16:11:15.062Z,27.70
2022-09-13T16:13:44.047Z,27.70
2022-09-13T16:16:15.589Z,27.70
2022-09-13T16:18:45.636Z,27.60
2022-09-13T16:21:15.284Z,27.60
2022-09-13T16:23:44.297Z,27.50
2022-09-13T16:26:13.430Z,27.40
2022-09-13T16:28:42.504Z,27.40
2022-09-13T16:31:11.700Z,27.30
2022-09-13T16:33:42.706Z,27.30
2022-09-13T16:36:18.748Z,27.20
2022-09-13T16:38:47.975Z,27.20
2022-09-13T16:41:17.130Z,27.20
2022-09-13T16:43:49.655Z,27.20
2022-09-13T16:46:19.477Z,27.20
2022-09-13T16:48:55.654Z,27.20
2022-09-13T16:51:26.071Z,27.20
2022-09-13T16:53:55.892Z,27.20
2022-09-13T16:56:26.610Z,27.20
2022-09-13T16:58:55.890Z,27.20
2022-09-13T17:01:27.163Z,27.20
2022-09-13T17:03:58.435Z,27.20
2022-09-13T17:06:28.422Z,27.10
2022-09-13T17:09:01.646Z,27.10
2022-09-13T17:11:34.177Z,27.00
2022-09-13T17:14:05.031Z,27.00
2022-09-13T17:16:38.656Z,27.00
2022-09-13T17:19:17.505Z,27.00
2022-09-13T17:21:47.150Z,26.90
2022-09-13T17:24:16.192Z,26.90
2022-09-13T17:26:46.693Z,26.80
2022-09-13T17:29:16.741Z,26.80
2022-09-13T17:31:45.946Z,26.70
2022-09-13T17:34:16.365Z,26.60
2022-09-13T17:36:49.214Z,26.50
2022-09-13T17:39:22.457Z,26.50
2022-09-13T17:41:51.474Z,26.40
2022-09-13T17:44:20.780Z,26.40
2022-09-13T17:46:49.988Z,26.30
2022-09-13T17:49:20.952Z,26.20
2022-09-13T17:51:50.113Z,26.20
2022-09-13T17:54:19.403Z,26.10
2022-09-13T17:56:48.663Z,26.00
2022-09-13T17:59:20.486Z,25.90
2022-09-13T18:01:52.649Z,25.90
2022-09-13T18:04:24.731Z,25.80
2022-09-13T18:06:54.686Z,25.70
2022-09-13T18:09:24.474Z,25.70
2022-09-13T18:11:53.698Z,25.60
2022-09-13T18:14:23.835Z,25.60
2022-09-13T18:16:58.487Z,25.50
2022-09-13T18:19:45.253Z,25.40
2022-09-13T18:22:15.868Z,25.40
2022-09-13T18:24:45.309Z,25.30
2022-09-13T18:27:14.990Z,25.30
2022-09-13T18:29:44.351Z,25.20
2022-09-13T18:32:13.450Z,25.20
2022-09-13T18:34:44.200Z,25.10
2022-09-13T18:37:13.770Z,25.00
2022-09-13T18:39:42.871Z,25.00
2022-09-13T18:42:12.038Z,24.90
2022-09-13T18:44:41.252Z,24.80
2022-09-13T18:47:12.971Z,24.80
2022-09-13T18:49:43.379Z,24.70
2022-09-13T18:52:12.474Z,24.70
2022-09-13T18:54:43.046Z,24.60
2022-09-13T18:57:12.522Z,24.60
2022-09-13T18:59:41.482Z,24.60
2022-09-13T19:02:11.872Z,24.50
2022-09-13T19:04:41.726Z,24.50
2022-09-13T19:07:16.242Z,24.50
2022-09-13T19:09:45.300Z,24.40
2022-09-13T19:12:14.330Z,24.40
2022-09-13T19:14:44.410Z,24.40
2022-09-13T19:17:13.454Z,24.30
2022-09-13T19:19:42.702Z,24.20
2022-09-13T19:22:11.793Z,24.20
2022-09-13T19:24:43.257Z,24.10
2022-09-13T19:27:13.333Z,24.00
2022-09-13T19:29:42.383Z,24.00
2022-09-13T19:32:11.513Z,24.00
2022-09-13T19:34:40.611Z,24.00
2022-09-13T19:37:09.679Z,23.90
2022-09-13T19:39:38.674Z,23.90
2022-09-13T19:42:09.379Z,23.80
2022-09-13T19:44:38.378Z,23.80
2022-09-13T19:47:53.097Z,23.70
2022-09-13T19:49:58.954Z,23.70
2022-09-13T19:52:28.057Z,23.70
2022-09-13T19:54:58.598Z,23.60
2022-09-13T19:57:29.442Z,23.60
2022-09-13T19:59:58.667Z,23.60
2022-09-13T20:02:27.994Z,23.50
2022-09-13T20:04:57.191Z,23.60
2022-09-13T20:07:26.312Z,23.40
2022-09-13T20:09:55.369Z,23.40
2022-09-13T20:12:24.551Z,23.40
2022-09-13T20:14:54.825Z,23.40
2022-09-13T20:17:25.419Z,23.40
2022-09-13T20:19:54.522Z,23.40
2022-09-13T20:22:23.658Z,23.30
2022-09-13T20:24:52.698Z,23.30
2022-09-13T20:27:21.694Z,23.30
2022-09-13T20:29:51.747Z,23.30
2022-09-13T20:32:22.118Z,23.30
2022-09-13T20:34:51.965Z,23.30
2022-09-13T20:37:22.468Z,23.30
2022-09-13T20:39:51.708Z,23.20
2022-09-13T20:42:20.854Z,23.20
2022-09-13T20:44:49.951Z,23.20
2022-09-13T20:47:18.984Z,23.20
2022-09-13T20:49:49.337Z,23.20
2022-09-13T20:52:18.322Z,23.10
2022-09-13T20:54:47.299Z,23.10
2022-09-13T20:57:16.245Z,23.00
2022-09-13T20:59:45.356Z,23.00
2022-09-13T21:02:14.585Z,23.00
2022-09-13T21:04:43.722Z,23.00
2022-09-13T21:07:32.213Z,23.00
2022-09-13T21:10:01.511Z,22.90
2022-09-13T21:12:31.728Z,22.90
2022-09-13T21:15:00.718Z,22.90
2022-09-13T21:17:29.723Z,22.80
2022-09-13T21:19:59.427Z,22.80
2022-09-13T21:22:29.951Z,22.80
2022-09-13T21:24:59.027Z,22.80
2022-09-13T21:27:28.204Z,22.80
2022-09-13T21:29:57.513Z,22.70
2022-09-13T21:32:26.527Z,22.70
2022-09-13T21:34:55.533Z,22.60
2022-09-13T21:37:24.666Z,22.60
2022-09-13T21:39:55.166Z,22.60
2022-09-13T21:42:24.469Z,22.50
2022-09-13T21:44:53.555Z,22.50
2022-09-13T21:47:22.667Z,22.60
2022-09-13T21:49:51.690Z,22.60
2022-09-13T21:52:20.819Z,22.50
2022-09-13T21:54:50.016Z,22.60
2022-09-13T21:57:20.698Z,22.60
2022-09-13T21:59:51.456Z,22.60
2022-09-13T22:02:20.748Z,22.60
2022-09-13T22:04:49.966Z,22.50
2022-09-13T22:07:19.307Z,22.50
2022-09-13T22:09:48.303Z,22.50
2022-09-13T22:12:17.285Z,22.50
2022-09-13T22:14:48.517Z,22.50
2022-09-13T22:17:17.767Z,22.50
2022-09-13T22:19:46.963Z,22.50
2022-09-13T22:22:16.161Z,22.50
2022-09-13T22:24:46.497Z,22.50
2022-09-13T22:27:15.560Z,22.50
2022-09-13T22:29:44.588Z,22.50
2022-09-13T22:32:14.981Z,22.40
2022-09-13T22:34:44.383Z,22.40
2022-09-13T22:37:13.381Z,22.40
2022-09-13T22:39:42.475Z,22.30
2022-09-13T22:42:11.677Z,22.20
2022-09-13T22:44:40.663Z,22.20
2022-09-13T22:47:09.649Z,22.10
2022-09-13T22:49:39.933Z,22.10
2022-09-13T22:52:09.151Z,22.10
2022-09-13T22:54:38.370Z,22.20
2022-09-13T22:57:07.543Z,22.20
2022-09-13T22:59:36.846Z,22.20
2022-09-13T23:02:06.611Z,22.20
2022-09-13T23:04:35.624Z,22.20
2022-09-13T23:07:06.475Z,22.20
2022-09-13T23:09:35.595Z,22.20
2022-09-13T23:12:04.882Z,22.30
2022-09-13T23:14:33.839Z,22.20
2022-09-13T23:17:02.986Z,22.20
2022-09-13T23:19:32.070Z,22.10
2022-09-13T23:22:01.139Z,22.00
2022-09-13T23:24:31.588Z,22.00
2022-09-13T23:27:01.600Z,22.00
2022-09-13T23:29:31.065Z,22.00
2022-09-13T23:32:00.261Z,21.90
2022-09-13T23:34:29.653Z,21.90
2022-09-13T23:36:58.680Z,21.80
2022-09-13T23:39:27.879Z,21.80
2022-09-13T23:41:58.358Z,21.80
2022-09-13T23:44:29.074Z,21.80
2022-09-13T23:46:58.186Z,21.80
2022-09-13T23:49:27.251Z,21.80
2022-09-13T23:51:56.355Z,21.80
2022-09-13T23:54:25.431Z,21.80
2022-09-13T23:56:54.488Z,21.80
2022-09-13T23:59:25.519Z,21.80
